createdAt,value
2017-01-29T00:00:20.241Z,99.88
2017-01-29T00:01:20.857Z,99.51
2017-01-29T00:02:20.204Z,98.84
2017-01-29T00:03:20.184Z,98.18
2017-01-29T00:04:20.294Z,97.05
2017-01-29T00:05:20.138Z,95.36
2017-01-29T00:06:20.127Z,94.32
2017-01-29T00:07:20.228Z,92.9
2017-01-29T00:08:20.082Z,93.56
2017-01-29T00:09:20.054Z,93.65
2017-01-29T00:10:20.122Z,94.6
2017-01-29T00:11:20.020Z,96.58
2017-01-29T00:12:19.996Z,96.77
2017-01-29T00:13:20.061Z,97.8
2017-01-29T00:14:19.969Z,99.22
2017-01-29T00:15:19.940Z,99.6
2017-01-29T00:16:20.074Z,99.99
2017-01-29T00:17:19.502Z,99.99
2017-01-29T00:18:19.879Z,99.99
2017-01-29T00:19:19.988Z,99.99
2017-01-29T00:20:19.850Z,99.99
2017-01-29T00:21:19.829Z,99.99
2017-01-29T00:22:19.920Z,99.99
2017-01-29T00:23:19.779Z,99.99
2017-01-29T00:24:19.763Z,99.99
2017-01-29T00:25:19.867Z,99.99
2017-01-29T00:26:19.721Z,99.99
2017-01-29T00:27:19.700Z,99.99
2017-01-29T00:28:19.807Z,99.99
2017-01-29T00:29:19.667Z,99.99
2017-01-29T00:30:19.647Z,99.22
2017-01-29T00:31:19.654Z,96.58
2017-01-29T00:32:19.604Z,95.54
2017-01-29T00:33:19.581Z,95.45
2017-01-29T00:34:19.565Z,95.64
2017-01-29T00:35:19.554Z,96.86
2017-01-29T00:36:19.524Z,96.48
2017-01-29T00:37:19.513Z,93.18
2017-01-29T00:38:19.481Z,92.52
2017-01-29T00:39:19.465Z,93.56
2017-01-29T00:40:19.442Z,95.45
2017-01-29T00:41:19.421Z,97.99
2017-01-29T00:42:19.401Z,99.98
2017-01-29T00:43:19.799Z,99.22
2017-01-29T00:44:19.362Z,91.3
2017-01-29T00:45:19.338Z,87.34
2017-01-29T00:46:19.323Z,86.49
2017-01-29T00:47:19.305Z,88.65
2017-01-29T00:48:19.289Z,90.36
2017-01-29T00:49:19.263Z,89.32
2017-01-29T00:50:19.244Z,89.03
2017-01-29T00:51:19.355Z,88.37
2017-01-29T00:52:19.206Z,85.26
2017-01-29T00:53:19.237Z,82.71
2017-01-29T00:54:19.162Z,82.62
2017-01-29T00:55:19.144Z,85.96
2017-01-29T00:56:19.226Z,89.69
2017-01-29T00:57:19.108Z,92.52
2017-01-29T00:58:19.089Z,88.56
2017-01-29T00:59:19.184Z,87.19
2017-01-29T01:00:18.643Z,87.85
2017-01-29T01:01:19.021Z,89.17
2017-01-29T01:02:19.099Z,91.06
2017-01-29T01:03:18.984Z,90.12
2017-01-29T01:04:18.970Z,89.45
2017-01-29T01:05:18.942Z,87.85
2017-01-29T01:06:19.069Z,87.85
2017-01-29T01:07:18.906Z,88.32
2017-01-29T01:08:19.400Z,89.08
2017-01-29T01:09:18.867Z,89.17
2017-01-29T01:10:18.852Z,89.55
2017-01-29T01:11:18.826Z,86.44
2017-01-29T01:12:18.948Z,86.06
2017-01-29T01:13:18.792Z,87.1
2017-01-29T01:14:18.772Z,88.98
2017-01-29T01:15:18.751Z,88.89
2017-01-29T01:16:18.729Z,89.36
2017-01-29T01:17:18.719Z,87.57
2017-01-29T01:18:18.699Z,86.91
2017-01-29T01:19:18.669Z,89.36
2017-01-29T01:20:18.650Z,92.76
2017-01-29T01:21:18.632Z,93.61
2017-01-29T01:22:18.612Z,92.66
2017-01-29T01:23:18.594Z,92.95
2017-01-29T01:24:18.578Z,94.46
2017-01-29T01:25:18.562Z,95.5
2017-01-29T01:26:18.537Z,94.93
2017-01-29T01:27:18.514Z,95.68
2017-01-29T01:28:18.493Z,94.08
2017-01-29T01:29:18.481Z,91.35
2017-01-29T01:30:18.552Z,89.17
2017-01-29T01:31:18.443Z,87
2017-01-29T01:32:18.419Z,86.82
2017-01-29T01:33:18.880Z,87.66
2017-01-29T01:34:18.375Z,89.45
2017-01-29T01:35:18.367Z,92.38
2017-01-29T01:36:18.375Z,96.81
2017-01-29T01:37:18.319Z,99.74
2017-01-29T01:38:18.382Z,99.46
2017-01-29T01:39:18.280Z,97.67
2017-01-29T01:40:18.360Z,98.33
2017-01-29T01:41:18.246Z,98.33
2017-01-29T01:42:18.218Z,98.71
2017-01-29T01:43:18.210Z,98.8
2017-01-29T01:44:18.188Z,99.37
2017-01-29T01:45:18.171Z,99.99
2017-01-29T01:46:18.153Z,99.99
2017-01-29T01:47:18.135Z,99.99
2017-01-29T01:48:18.107Z,99.99
2017-01-29T01:49:18.091Z,99.99
2017-01-29T01:50:18.075Z,99.99
2017-01-29T01:51:18.187Z,99.99
2017-01-29T01:52:18.033Z,99.99
2017-01-29T01:53:18.010Z,99.99
2017-01-29T01:54:17.990Z,99.99
2017-01-29T01:55:17.979Z,99.99
2017-01-29T01:56:18.065Z,99.99
2017-01-29T01:57:17.941Z,99.99
2017-01-29T01:58:17.913Z,99.99
2017-01-29T01:59:17.995Z,99.99
2017-01-29T02:00:17.874Z,99.99
2017-01-29T02:01:17.858Z,99.99
2017-01-29T02:02:17.887Z,99.99
2017-01-29T02:03:17.817Z,99.99
2017-01-29T02:04:17.395Z,99.99
2017-01-29T02:05:17.915Z,99.99
2017-01-29T02:06:17.766Z,99.99
2017-01-29T02:07:17.737Z,99.99
2017-01-29T02:08:17.738Z,99.99
2017-01-29T02:09:17.707Z,99.99
2017-01-29T02:10:17.744Z,98.47
2017-01-29T02:11:17.665Z,98.28
2017-01-29T02:12:17.669Z,98.56
2017-01-29T02:13:17.736Z,98.28
2017-01-29T02:14:17.208Z,96.86
2017-01-29T02:15:17.601Z,97.24
2017-01-29T02:16:17.701Z,96.67
2017-01-29T02:17:17.555Z,95.92
2017-01-29T02:18:17.531Z,93.18
2017-01-29T02:19:17.661Z,91.86
2017-01-29T02:20:17.511Z,93.84
2017-01-29T02:21:17.603Z,95.64
2017-01-29T02:22:17.460Z,95.45
2017-01-29T02:23:17.435Z,93.65
2017-01-29T02:24:17.419Z,92.43
2017-01-29T02:25:17.399Z,91.96
2017-01-29T02:26:16.972Z,91.58
2017-01-29T02:27:17.405Z,92.14
2017-01-29T02:28:17.333Z,91.49
2017-01-29T02:29:17.306Z,91.02
2017-01-29T02:30:17.288Z,91.2
2017-01-29T02:31:17.269Z,91.67
2017-01-29T02:32:17.249Z,92.61
2017-01-29T02:33:17.229Z,92.14
2017-01-29T02:34:17.226Z,91.67
2017-01-29T02:35:17.194Z,91.77
2017-01-29T02:36:17.170Z,91.96
2017-01-29T02:37:17.151Z,91.58
2017-01-29T02:38:17.258Z,90.92
2017-01-29T02:39:17.112Z,90.26
2017-01-29T02:40:17.092Z,90.83
2017-01-29T02:41:17.155Z,92.05
2017-01-29T02:42:17.056Z,91.2
2017-01-29T02:43:17.031Z,89.6
2017-01-29T02:44:17.015Z,87.43
2017-01-29T02:45:17.015Z,86.68
2017-01-29T02:46:17.075Z,86.68
2017-01-29T02:47:16.952Z,86.4
2017-01-29T02:48:16.937Z,87.24
2017-01-29T02:49:17.050Z,87.81
2017-01-29T02:50:16.896Z,87.81
2017-01-29T02:51:16.938Z,88.09
2017-01-29T02:52:17.013Z,88.56
2017-01-29T02:53:16.838Z,89.6
2017-01-29T02:54:16.491Z,91.11
2017-01-29T02:55:16.798Z,91.49
2017-01-29T02:56:16.781Z,89.22
2017-01-29T02:57:16.928Z,87.52
2017-01-29T02:58:16.742Z,88.47
2017-01-29T02:59:16.720Z,89.22
2017-01-29T03:00:16.783Z,88.37
2017-01-29T03:01:16.682Z,88.18
2017-01-29T03:02:16.665Z,85.73
2017-01-29T03:03:16.771Z,85.73
2017-01-29T03:04:16.629Z,83.18
2017-01-29T03:05:16.606Z,81.34
2017-01-29T03:06:16.716Z,80.87
2017-01-29T03:07:16.562Z,81.43
2017-01-29T03:08:16.544Z,81.24
2017-01-29T03:09:16.657Z,81.81
2017-01-29T03:10:16.507Z,84.17
2017-01-29T03:11:16.485Z,85.02
2017-01-29T03:12:16.648Z,83.89
2017-01-29T03:13:16.449Z,84.55
2017-01-29T03:14:16.432Z,84.45
2017-01-29T03:15:16.429Z,84.17
2017-01-29T03:16:16.390Z,83.8
2017-01-29T03:17:16.371Z,82.95
2017-01-29T03:18:15.956Z,82.85
2017-01-29T03:19:16.331Z,81.62
2017-01-29T03:20:16.313Z,79.93
2017-01-29T03:21:16.293Z,79.17
2017-01-29T03:22:16.273Z,77.85
2017-01-29T03:23:15.855Z,77.28
2017-01-29T03:24:16.234Z,77.37
2017-01-29T03:25:16.214Z,77.19
2017-01-29T03:26:16.196Z,78.17
2017-01-29T03:27:16.173Z,78.32
2017-01-29T03:28:16.159Z,78.36
2017-01-29T03:29:16.139Z,79.4
2017-01-29T03:30:16.118Z,80.53
2017-01-29T03:31:16.098Z,80.53
2017-01-29T03:32:16.085Z,82.8
2017-01-29T03:33:16.064Z,82.89
2017-01-29T03:34:15.642Z,82.99
2017-01-29T03:35:16.021Z,82.89
2017-01-29T03:36:16.002Z,83.46
2017-01-29T03:37:15.986Z,82.99
2017-01-29T03:38:15.965Z,83.65
2017-01-29T03:39:15.947Z,84.88
2017-01-29T03:40:15.924Z,85.25
2017-01-29T03:41:15.911Z,86.57
2017-01-29T03:42:15.891Z,87.99
2017-01-29T03:43:15.873Z,87.05
2017-01-29T03:44:15.853Z,87.52
2017-01-29T03:45:15.831Z,87.99
2017-01-29T03:46:15.812Z,86.86
2017-01-29T03:47:15.793Z,84.78
2017-01-29T03:48:15.776Z,83.55
2017-01-29T03:49:15.756Z,82.42
2017-01-29T03:50:15.738Z,82.04
2017-01-29T03:51:15.720Z,82.61
2017-01-29T03:52:15.700Z,82.61
2017-01-29T03:53:15.732Z,82.51
2017-01-29T03:54:15.663Z,82.89
2017-01-29T03:55:15.646Z,82.8
2017-01-29T03:56:15.226Z,82.7
2017-01-29T03:57:15.207Z,83.74
2017-01-29T03:58:15.588Z,83.46
2017-01-29T03:59:15.572Z,84.03
2017-01-29T04:00:15.150Z,84.5
2017-01-29T04:01:15.133Z,84.22
2017-01-29T04:02:15.524Z,83.27
2017-01-29T04:03:15.496Z,83.93
2017-01-29T04:04:15.475Z,84.03
2017-01-29T04:05:15.457Z,86.01
2017-01-29T04:06:15.039Z,85.72
2017-01-29T04:07:15.024Z,85.91
2017-01-29T04:08:15.002Z,86.57
2017-01-29T04:09:15.386Z,87.24
2017-01-29T04:10:15.364Z,87.8
2017-01-29T04:11:14.950Z,88.51
2017-01-29T04:12:15.330Z,89.07
2017-01-29T04:13:14.915Z,89.45
2017-01-29T04:14:14.890Z,89.83
2017-01-29T04:15:14.894Z,89.73
2017-01-29T04:16:15.253Z,90.49
2017-01-29T04:17:15.235Z,91.15
2017-01-29T04:18:14.818Z,92.38
2017-01-29T04:19:14.804Z,93.42
2017-01-29T04:20:15.194Z,93.13
2017-01-29T04:21:14.764Z,93.32
2017-01-29T04:22:15.142Z,94.46
2017-01-29T04:23:14.725Z,95.78
2017-01-29T04:24:15.106Z,95.59
2017-01-29T04:25:15.092Z,96.16
2017-01-29T04:26:14.780Z,96.63
2017-01-29T04:27:14.816Z,97.58
2017-01-29T04:28:14.743Z,98.8
2017-01-29T04:29:14.719Z,99.75
2017-01-29T04:30:14.599Z,99.99
2017-01-29T04:31:14.581Z,99.99
2017-01-29T04:32:14.962Z,99.99
2017-01-29T04:33:14.546Z,99.99
2017-01-29T04:34:14.525Z,99.99
2017-01-29T04:35:14.510Z,99.99
2017-01-29T04:36:14.914Z,99.99
2017-01-29T04:37:14.875Z,99.99
2017-01-29T04:38:14.454Z,99.99
2017-01-29T04:39:14.835Z,99.99
2017-01-29T04:40:14.418Z,99.99
2017-01-29T04:41:14.799Z,99.99
2017-01-29T04:42:14.782Z,99.99
2017-01-29T04:43:14.762Z,99.99
2017-01-29T04:44:14.747Z,99.99
2017-01-29T04:45:14.326Z,99.99
2017-01-29T04:46:14.718Z,99.99
2017-01-29T04:47:14.692Z,99.99
2017-01-29T04:48:14.277Z,99.99
2017-01-29T04:49:14.656Z,99.99
2017-01-29T04:50:14.238Z,99.99
2017-01-29T04:51:14.620Z,99.99
2017-01-29T04:52:14.204Z,99.99
2017-01-29T04:53:14.583Z,99.99
2017-01-29T04:54:14.168Z,99.99
2017-01-29T04:55:14.548Z,99.99
2017-01-29T04:56:14.135Z,99.99
2017-01-29T04:57:14.512Z,99.99
2017-01-29T04:58:14.490Z,99.99
2017-01-29T04:59:14.474Z,99.99
2017-01-29T05:00:14.459Z,99.99
2017-01-29T05:01:14.439Z,99.99
2017-01-29T05:02:14.022Z,99.99
2017-01-29T05:03:14.403Z,99.99
2017-01-29T05:04:13.988Z,99.99
2017-01-29T05:05:13.968Z,99.99
2017-01-29T05:06:14.349Z,99.99
2017-01-29T05:07:14.334Z,99.99
2017-01-29T05:08:14.313Z,99.99
2017-01-29T05:09:14.295Z,99.99
2017-01-29T05:10:13.880Z,99.99
2017-01-29T05:11:13.864Z,99.99
2017-01-29T05:12:14.244Z,99.99
2017-01-29T05:13:14.223Z,99.99
2017-01-29T05:14:14.207Z,99.99
2017-01-29T05:15:14.189Z,99.99
2017-01-29T05:16:14.172Z,99.99
2017-01-29T05:17:14.155Z,99.99
2017-01-29T05:18:13.736Z,99.99
2017-01-29T05:19:13.720Z,99.99
2017-01-29T05:20:13.701Z,99.99
2017-01-29T05:21:14.082Z,99.99
2017-01-29T05:22:14.064Z,99.99
2017-01-29T05:23:13.651Z,99.99
2017-01-29T05:24:14.030Z,99.99
2017-01-29T05:25:14.013Z,99.99
2017-01-29T05:26:13.992Z,99.99
2017-01-29T05:27:13.975Z,99.99
2017-01-29T05:28:13.957Z,99.99
2017-01-29T05:29:13.939Z,99.99
2017-01-29T05:30:13.925Z,99.99
2017-01-29T05:31:13.902Z,99.99
2017-01-29T05:32:13.884Z,99.99
2017-01-29T05:33:13.867Z,99.99
2017-01-29T05:34:13.848Z,99.99
2017-01-29T05:35:13.831Z,99.99
2017-01-29T05:36:13.815Z,99.99
2017-01-29T05:37:13.794Z,99.99
2017-01-29T05:38:13.778Z,99.99
2017-01-29T05:39:13.761Z,99.99
2017-01-29T05:40:13.764Z,99.99
2017-01-29T05:41:13.723Z,99.99
2017-01-29T05:42:13.708Z,99.99
2017-01-29T05:43:13.696Z,99.99
2017-01-29T05:44:13.272Z,99.99
2017-01-29T05:45:13.653Z,99.99
2017-01-29T05:46:13.634Z,99.99
2017-01-29T05:47:13.618Z,99.99
2017-01-29T05:48:13.596Z,99.99
2017-01-29T05:49:13.580Z,99.99
2017-01-29T05:50:13.563Z,99.99
2017-01-29T05:51:13.546Z,99.99
2017-01-29T05:52:13.525Z,99.99
2017-01-29T05:53:13.507Z,99.99
2017-01-29T05:54:13.493Z,99.99
2017-01-29T05:55:13.471Z,99.99
2017-01-29T05:56:13.456Z,99.99
2017-01-29T05:57:13.435Z,99.99
2017-01-29T05:58:13.414Z,99.99
2017-01-29T05:59:13.401Z,99.99
2017-01-29T06:00:13.385Z,99.99
2017-01-29T06:01:13.367Z,99.99
2017-01-29T06:02:13.346Z,99.99
2017-01-29T06:03:13.328Z,99.99
2017-01-29T06:04:13.309Z,99.99
2017-01-29T06:05:13.295Z,99.99
2017-01-29T06:06:13.278Z,99.99
2017-01-29T06:07:13.258Z,99.99
2017-01-29T06:08:13.243Z,99.99
2017-01-29T06:09:13.222Z,99.99
2017-01-29T06:10:13.204Z,99.99
2017-01-29T06:11:13.186Z,99.99
2017-01-29T06:12:13.164Z,99.99
2017-01-29T06:13:13.149Z,99.99
2017-01-29T06:14:13.132Z,99.99
2017-01-29T06:15:13.110Z,99.99
2017-01-29T06:16:13.096Z,99.99
2017-01-29T06:17:13.076Z,99.99
2017-01-29T06:18:13.061Z,99.99
2017-01-29T06:19:13.043Z,99.99
2017-01-29T06:20:12.623Z,99.99
2017-01-29T06:21:13.007Z,99.99
2017-01-29T06:22:12.988Z,99.99
2017-01-29T06:23:12.967Z,99.99
2017-01-29T06:24:12.951Z,99.99
2017-01-29T06:25:12.932Z,99.99
2017-01-29T06:26:12.913Z,99.99
2017-01-29T06:27:12.897Z,99.99
2017-01-29T06:28:12.875Z,99.99
2017-01-29T06:29:12.862Z,99.99
2017-01-29T06:30:12.845Z,99.99
2017-01-29T06:31:12.828Z,99.99
2017-01-29T06:32:12.806Z,99.99
2017-01-29T06:33:12.783Z,99.99
2017-01-29T06:34:12.769Z,99.99
2017-01-29T06:35:12.750Z,99.99
2017-01-29T06:36:12.733Z,99.99
2017-01-29T06:37:12.713Z,99.99
2017-01-29T06:38:12.698Z,99.99
2017-01-29T06:39:12.680Z,99.99
2017-01-29T06:40:12.659Z,99.99
2017-01-29T06:41:12.640Z,99.99
2017-01-29T06:42:12.623Z,99.99
2017-01-29T06:43:12.608Z,99.99
2017-01-29T06:44:12.583Z,99.99
2017-01-29T06:45:12.568Z,99.99
2017-01-29T06:46:12.551Z,99.99
2017-01-29T06:47:12.133Z,99.99
2017-01-29T06:48:12.356Z,99.99
2017-01-29T06:49:12.097Z,99.99
2017-01-29T06:50:12.077Z,99.99
2017-01-29T06:51:12.458Z,99.99
2017-01-29T06:52:12.441Z,99.99
2017-01-29T06:53:12.419Z,99.99
2017-01-29T06:54:12.399Z,99.99
2017-01-29T06:55:12.391Z,99.99
2017-01-29T06:56:11.968Z,99.99
2017-01-29T06:57:12.346Z,99.99
2017-01-29T06:58:12.358Z,99.99
2017-01-29T06:59:12.310Z,99.99
2017-01-29T07:00:11.895Z,99.99
2017-01-29T07:01:11.878Z,99.99
2017-01-29T07:02:12.253Z,99.99
2017-01-29T07:03:12.236Z,99.99
2017-01-29T07:04:11.817Z,99.99
2017-01-29T07:05:12.202Z,99.99
2017-01-29T07:06:12.182Z,99.99
2017-01-29T07:07:12.163Z,99.99
2017-01-29T07:08:12.144Z,99.99
2017-01-29T07:09:12.129Z,99.99
2017-01-29T07:10:12.106Z,99.99
2017-01-29T07:11:11.690Z,99.99
2017-01-29T07:12:12.072Z,99.99
2017-01-29T07:13:12.051Z,99.99
2017-01-29T07:14:11.635Z,99.99
2017-01-29T07:15:11.616Z,99.99
2017-01-29T07:16:11.997Z,99.99
2017-01-29T07:17:11.986Z,99.99
2017-01-29T07:18:11.966Z,99.99
2017-01-29T07:19:11.949Z,99.99
2017-01-29T07:20:11.923Z,99.99
2017-01-29T07:21:11.910Z,99.99
2017-01-29T07:22:11.887Z,99.99
2017-01-29T07:23:11.866Z,99.99
2017-01-29T07:24:11.448Z,99.99
2017-01-29T07:25:11.836Z,99.99
2017-01-29T07:26:11.813Z,99.99
2017-01-29T07:27:11.795Z,99.99
2017-01-29T07:28:11.776Z,99.99
2017-01-29T07:29:11.759Z,99.99
2017-01-29T07:30:11.742Z,99.99
2017-01-29T07:31:11.321Z,99.99
2017-01-29T07:32:11.336Z,99.99
2017-01-29T07:33:11.688Z,99.99
2017-01-29T07:34:11.675Z,99.99
2017-01-29T07:35:11.649Z,99.99
2017-01-29T07:36:11.632Z,99.99
2017-01-29T07:37:11.613Z,99.99
2017-01-29T07:38:11.594Z,99.99
2017-01-29T07:39:11.579Z,99.99
2017-01-29T07:40:11.160Z,99.99
2017-01-29T07:41:11.543Z,99.99
2017-01-29T07:42:11.525Z,99.99
2017-01-29T07:43:11.505Z,99.99
2017-01-29T07:44:11.487Z,99.99
2017-01-29T07:45:11.469Z,99.99
2017-01-29T07:46:11.450Z,99.99
2017-01-29T07:47:11.432Z,99.99
2017-01-29T07:48:11.419Z,99.99
2017-01-29T07:49:11.394Z,99.99
2017-01-29T07:50:11.382Z,99.99
2017-01-29T07:51:11.361Z,99.99
2017-01-29T07:52:11.345Z,99.99
2017-01-29T07:53:11.324Z,99.99
2017-01-29T07:54:10.910Z,99.99
2017-01-29T07:55:10.889Z,99.99
2017-01-29T07:56:11.271Z,99.99
2017-01-29T07:57:11.254Z,99.99
2017-01-29T07:58:11.234Z,99.99
2017-01-29T07:59:11.217Z,99.99
2017-01-29T08:00:11.201Z,99.99
2017-01-29T08:01:10.782Z,99.99
2017-01-29T08:02:11.161Z,99.99
2017-01-29T08:03:10.748Z,99.99
2017-01-29T08:04:10.729Z,99.99
2017-01-29T08:05:11.107Z,99.99
2017-01-29T08:06:11.089Z,99.99
2017-01-29T08:07:11.076Z,99.99
2017-01-29T08:08:11.055Z,99.99
2017-01-29T08:09:11.038Z,99.99
2017-01-29T08:10:10.623Z,99.99
2017-01-29T08:11:11.005Z,99.99
2017-01-29T08:12:10.987Z,99.99
2017-01-29T08:13:10.568Z,99.99
2017-01-29T08:14:10.949Z,99.99
2017-01-29T08:15:10.932Z,99.99
2017-01-29T08:16:10.914Z,99.99
2017-01-29T08:17:10.899Z,99.99
2017-01-29T08:18:10.881Z,99.99
2017-01-29T08:19:10.864Z,99.99
2017-01-29T08:20:10.841Z,99.99
2017-01-29T08:21:10.833Z,99.99
2017-01-29T08:22:10.821Z,99.99
2017-01-29T08:23:10.392Z,99.99
2017-01-29T08:24:10.773Z,99.99
2017-01-29T08:25:10.760Z,99.99
2017-01-29T08:26:10.342Z,99.99
2017-01-29T08:27:10.722Z,99.99
2017-01-29T08:28:10.704Z,99.99
2017-01-29T08:29:10.689Z,99.99
2017-01-29T08:30:10.669Z,99.99
2017-01-29T08:31:10.668Z,99.99
2017-01-29T08:32:10.642Z,99.99
2017-01-29T08:33:10.620Z,99.99
2017-01-29T08:34:10.204Z,99.99
2017-01-29T08:35:10.586Z,99.99
2017-01-29T08:36:10.169Z,99.99
2017-01-29T08:37:10.553Z,99.99
2017-01-29T08:38:10.533Z,99.99
2017-01-29T08:39:10.515Z,99.99
2017-01-29T08:40:10.100Z,99.99
2017-01-29T08:41:10.085Z,99.99
2017-01-29T08:42:10.064Z,99.99
2017-01-29T08:43:10.449Z,99.99
2017-01-29T08:44:10.430Z,99.99
2017-01-29T08:45:10.416Z,99.99
2017-01-29T08:46:09.998Z,99.99
2017-01-29T08:47:10.375Z,99.99
2017-01-29T08:48:09.962Z,99.99
2017-01-29T08:49:09.947Z,99.99
2017-01-29T08:50:10.329Z,99.99
2017-01-29T08:51:09.912Z,99.99
2017-01-29T08:52:10.300Z,99.99
2017-01-29T08:53:10.274Z,99.99
2017-01-29T08:54:10.260Z,99.99
2017-01-29T08:55:10.244Z,99.99
2017-01-29T08:56:09.830Z,99.99
2017-01-29T08:57:10.211Z,99.99
2017-01-29T08:58:10.194Z,99.99
2017-01-29T08:59:10.173Z,99.99
2017-01-29T09:00:10.156Z,99.99
2017-01-29T09:01:09.740Z,99.99
2017-01-29T09:02:10.125Z,99.99
2017-01-29T09:03:09.708Z,99.99
2017-01-29T09:04:10.092Z,99.99
2017-01-29T09:05:10.077Z,99.99
2017-01-29T09:06:10.058Z,99.99
2017-01-29T09:07:09.643Z,99.99
2017-01-29T09:08:10.024Z,99.99
2017-01-29T09:09:10.004Z,99.99
2017-01-29T09:10:09.990Z,99.99
2017-01-29T09:11:09.977Z,99.99
2017-01-29T09:12:09.953Z,99.99
2017-01-29T09:13:09.938Z,99.99
2017-01-29T09:14:09.921Z,99.99
2017-01-29T09:15:09.903Z,99.99
2017-01-29T09:16:09.888Z,99.99
2017-01-29T09:17:09.474Z,99.99
2017-01-29T09:18:09.859Z,99.99
2017-01-29T09:19:09.842Z,99.99
2017-01-29T09:20:09.424Z,99.99
2017-01-29T09:21:09.809Z,99.99
2017-01-29T09:22:09.790Z,99.99
2017-01-29T09:23:09.775Z,99.99
2017-01-29T09:24:09.362Z,99.99
2017-01-29T09:25:09.741Z,99.99
2017-01-29T09:26:09.721Z,99.99
2017-01-29T09:27:09.309Z,99.99
2017-01-29T09:28:09.694Z,99.99
2017-01-29T09:29:09.675Z,99.99
2017-01-29T09:30:09.263Z,99.99
2017-01-29T09:31:09.644Z,99.99
2017-01-29T09:32:09.630Z,99.99
2017-01-29T09:33:09.636Z,99.99
2017-01-29T09:34:09.595Z,99.99
2017-01-29T09:35:09.578Z,99.99
2017-01-29T09:36:09.563Z,99.99
2017-01-29T09:37:09.543Z,99.99
2017-01-29T09:38:09.535Z,99.99
2017-01-29T09:39:09.513Z,99.99
2017-01-29T09:40:09.497Z,99.99
2017-01-29T09:41:09.480Z,99.99
2017-01-29T09:42:09.466Z,99.99
2017-01-29T09:43:09.450Z,99.99
2017-01-29T09:44:09.432Z,99.99
2017-01-29T09:45:09.414Z,99.99
2017-01-29T09:46:09.400Z,99.99
2017-01-29T09:47:09.386Z,99.99
2017-01-29T09:48:09.369Z,99.99
2017-01-29T09:49:09.353Z,99.99
2017-01-29T09:50:09.341Z,99.99
2017-01-29T09:51:09.332Z,99.99
2017-01-29T09:52:09.306Z,99.99
2017-01-29T09:53:09.291Z,99.99
2017-01-29T09:54:09.273Z,99.99
2017-01-29T09:55:09.258Z,99.99
2017-01-29T09:56:08.844Z,99.99
2017-01-29T09:57:09.225Z,99.99
2017-01-29T09:58:09.211Z,99.99
2017-01-29T09:59:09.197Z,99.99
2017-01-29T10:00:09.177Z,99.99
2017-01-29T10:01:09.195Z,99.99
2017-01-29T10:02:09.148Z,99.99
2017-01-29T10:03:09.132Z,99.99
2017-01-29T10:04:09.121Z,99.99
2017-01-29T10:05:09.105Z,99.99
2017-01-29T10:06:09.088Z,99.99
2017-01-29T10:07:09.069Z,99.99
2017-01-29T10:08:09.056Z,99.99
2017-01-29T10:09:09.039Z,99.99
2017-01-29T10:10:08.624Z,99.99
2017-01-29T10:11:09.006Z,99.99
2017-01-29T10:12:08.597Z,99.99
2017-01-29T10:13:08.978Z,99.99
2017-01-29T10:14:08.959Z,99.99
2017-01-29T10:15:08.939Z,99.99
2017-01-29T10:16:08.930Z,99.99
2017-01-29T10:17:08.910Z,99.99
2017-01-29T10:18:08.497Z,99.99
2017-01-29T10:19:08.887Z,99.99
2017-01-29T10:20:08.863Z,99.99
2017-01-29T10:21:08.850Z,99.99
2017-01-29T10:22:08.833Z,99.99
2017-01-29T10:23:08.816Z,99.99
2017-01-29T10:24:08.804Z,99.99
2017-01-29T10:25:08.388Z,99.99
2017-01-29T10:26:08.770Z,99.99
2017-01-29T10:27:08.755Z,99.99
2017-01-29T10:28:08.740Z,99.99
2017-01-29T10:29:08.723Z,99.99
2017-01-29T10:30:08.709Z,99.99
2017-01-29T10:31:08.692Z,99.99
2017-01-29T10:32:08.686Z,99.99
2017-01-29T10:33:08.660Z,99.95
2017-01-29T10:34:08.648Z,96.64
2017-01-29T10:35:08.630Z,95.97
2017-01-29T10:36:08.614Z,93.42
2017-01-29T10:37:08.602Z,93.13
2017-01-29T10:38:08.192Z,94.46
2017-01-29T10:39:08.172Z,93.94
2017-01-29T10:40:08.554Z,90.34
2017-01-29T10:41:08.541Z,89.96
2017-01-29T10:42:08.524Z,85.61
2017-01-29T10:43:08.511Z,85.42
2017-01-29T10:44:08.491Z,86.55
2017-01-29T10:45:08.476Z,89.2
2017-01-29T10:46:08.466Z,88.92
2017-01-29T10:47:08.450Z,89.58
2017-01-29T10:48:08.144Z,89.11
2017-01-29T10:49:08.418Z,84.38
2017-01-29T10:50:08.405Z,84.38
2017-01-29T10:51:08.389Z,84.66
2017-01-29T10:52:07.976Z,85.7
2017-01-29T10:53:08.359Z,85.61
2017-01-29T10:54:08.344Z,83.71
2017-01-29T10:55:08.334Z,85.04
2017-01-29T10:56:08.318Z,84.38
2017-01-29T10:57:08.313Z,81.82
2017-01-29T10:58:08.292Z,82.24
2017-01-29T10:59:08.275Z,81.48
2017-01-29T11:00:07.859Z,81.29
2017-01-29T11:01:08.246Z,81.57
2017-01-29T11:02:07.838Z,79.3
2017-01-29T11:03:08.216Z,79.96
2017-01-29T11:04:08.200Z,81.38
2017-01-29T11:05:07.788Z,82.05
2017-01-29T11:06:07.774Z,79.11
2017-01-29T11:07:08.159Z,79.87
2017-01-29T11:08:08.143Z,77.78
2017-01-29T11:09:08.129Z,77.22
2017-01-29T11:10:08.113Z,76.84
2017-01-29T11:11:08.101Z,76.74
2017-01-29T11:12:08.089Z,77.22
2017-01-29T11:13:08.078Z,77.78
2017-01-29T11:14:08.057Z,78.26
2017-01-29T11:15:08.043Z,78.45
2017-01-29T11:16:08.031Z,77.78
2017-01-29T11:17:08.014Z,77.12
2017-01-29T11:18:08.000Z,76.93
2017-01-29T11:19:07.991Z,74.85
2017-01-29T11:20:07.974Z,74.66
2017-01-29T11:21:07.960Z,75.45
2017-01-29T11:22:07.945Z,76.5
2017-01-29T11:23:07.931Z,77.16
2017-01-29T11:24:07.916Z,75.36
2017-01-29T11:25:07.900Z,74.6
2017-01-29T11:26:07.488Z,75.84
2017-01-29T11:27:07.873Z,76.12
2017-01-29T11:28:07.865Z,75.17
2017-01-29T11:29:07.845Z,74.98
2017-01-29T11:30:07.832Z,75.07
2017-01-29T11:31:07.821Z,74.41
2017-01-29T11:32:07.408Z,74.79
2017-01-29T11:33:07.790Z,74.32
2017-01-29T11:34:07.777Z,74.41
2017-01-29T11:35:07.766Z,74.41
2017-01-29T11:36:07.749Z,73.84
2017-01-29T11:37:07.737Z,73.27
2017-01-29T11:38:07.734Z,71.66
2017-01-29T11:39:07.715Z,72.27
2017-01-29T11:40:07.698Z,72.55
2017-01-29T11:41:07.683Z,71.32
2017-01-29T11:42:07.670Z,71.13
2017-01-29T11:43:07.658Z,71.98
2017-01-29T11:44:07.645Z,70.65
2017-01-29T11:45:07.234Z,70.84
2017-01-29T11:46:07.616Z,69.71
2017-01-29T11:47:07.604Z,69.23
2017-01-29T11:48:07.591Z,69.23
2017-01-29T11:49:07.182Z,69.04
2017-01-29T11:50:07.165Z,69.8
2017-01-29T11:51:07.151Z,71.03
2017-01-29T11:52:07.144Z,69.33
2017-01-29T11:53:07.126Z,69.13
2017-01-29T11:54:07.517Z,69.13
2017-01-29T11:55:07.101Z,68.85
2017-01-29T11:56:07.483Z,69.04
2017-01-29T11:57:07.107Z,68.38
2017-01-29T11:58:07.457Z,68.66
2017-01-29T11:59:07.443Z,69.61
2017-01-29T12:00:07.433Z,68.85
2017-01-29T12:01:07.421Z,68.66
2017-01-29T12:02:07.405Z,69.99
2017-01-29T12:03:07.391Z,70.28
2017-01-29T12:04:06.980Z,69.42
2017-01-29T12:05:07.369Z,68.95
2017-01-29T12:06:07.368Z,68.85
2017-01-29T12:07:07.342Z,67.33
2017-01-29T12:08:07.329Z,67.71
2017-01-29T12:09:06.916Z,68.1
2017-01-29T12:10:07.303Z,68.48
2017-01-29T12:11:07.290Z,67.24
2017-01-29T12:12:06.879Z,67.71
2017-01-29T12:13:07.264Z,67.24
2017-01-29T12:14:06.853Z,67.14
2017-01-29T12:15:07.239Z,66.8
2017-01-29T12:16:06.827Z,66.86
2017-01-29T12:17:06.814Z,65.16
2017-01-29T12:18:07.201Z,64.59
2017-01-29T12:19:06.788Z,64.68
2017-01-29T12:20:07.178Z,64.68
2017-01-29T12:21:07.159Z,64.11
2017-01-29T12:22:07.149Z,58.45
2017-01-29T12:23:07.136Z,57.76
2017-01-29T12:24:07.121Z,55
2017-01-29T12:25:07.110Z,54.63
2017-01-29T12:26:06.700Z,53.02
2017-01-29T12:27:07.084Z,51.68
2017-01-29T12:28:07.073Z,50.93
2017-01-29T12:29:07.064Z,52.45
2017-01-29T12:30:07.057Z,52.26
2017-01-29T12:31:07.035Z,53.39
2017-01-29T12:32:07.027Z,53.68
2017-01-29T12:33:07.008Z,53.49
2017-01-29T12:34:06.996Z,54.44
2017-01-29T12:35:07.020Z,56.52
2017-01-29T12:36:06.971Z,57.38
2017-01-29T12:37:06.955Z,55.93
2017-01-29T12:38:06.945Z,57.35
2017-01-29T12:39:06.928Z,58.96
2017-01-29T12:40:06.918Z,60.28
2017-01-29T12:41:06.504Z,59.63
2017-01-29T12:42:06.892Z,60.1
2017-01-29T12:43:06.478Z,59.81
2017-01-29T12:44:06.466Z,61.43
2017-01-29T12:45:06.850Z,58.86
2017-01-29T12:46:06.849Z,57.82
2017-01-29T12:47:06.863Z,58.11
2017-01-29T12:48:06.811Z,56.59
2017-01-29T12:49:06.801Z,57.54
2017-01-29T12:50:06.787Z,58.2
2017-01-29T12:51:06.769Z,59.53
2017-01-29T12:52:06.366Z,58.96
2017-01-29T12:53:06.744Z,59.05